»·PEaware :: SWA1220 KLAX-KSAN

SWA1220 :: KLAX-KSAN

FLIGHT INFORMATION

Flight Status: Arrived
Operator:
Southwest Airlines
More flights by this operator :: More flights under this callsign
Pilot: Cameron R. (17848)
Aircraft: BOEING 737-800
(B738)
More flights by this aircraft type
Origin: KLAX Los Angeles Intl
United States
Destination: KSAN San Diego Intl-Lindbergh
United States
More flights between these airports :: More routes between these airports
Route: +LAXX1 MZB
File this flight plan on PilotEdge
Remarks: ifr
Altitude:
(Current/Filed)
11,000ft
Speed:
(Current/Filed)
390kts
Departed: 11-Jan-18 04:43 PM
Arrived: 11-Jan-18 05:22 PM
Distance/Time
Traveled:
95nm/0:39
Distance/Time
To Go:
Arrived

Flight Plot

Page will automatically refresh every two minutes.

Flight plan parsing failed; only flown route is shown


Map Options




Map Legend


Flown Route
Filed Route
Departure Airport
Arrival Airport
Navaid (VOR, NDB)
Fix

Horizontal Profiles

Position Reports

Time Latitude Longitude Heading Altitude Ground
Speed
11-Jan-18 16:41 33.941288 -118.397679 83 113ft 0kts
11-Jan-18 16:42 33.941288 -118.397679 83 113ft 0kts
11-Jan-18 16:43 33.941288 -118.397679 83 113ft 0kts
11-Jan-18 16:44 33.941288 -118.397679 83 113ft 0kts
11-Jan-18 16:45 33.941288 -118.397679 83 113ft 0kts
11-Jan-18 16:46 33.941288 -118.397679 83 113ft 0kts
11-Jan-18 16:47 33.941233 -118.398359 121 113ft 2kts
11-Jan-18 16:48 33.939121 -118.397421 103 111ft 22kts
11-Jan-18 16:49 33.940036 -118.387853 83 103ft 42kts
11-Jan-18 16:50 33.940713 -118.380793 101 99ft 0kts
11-Jan-18 16:51 33.940128 -118.380135 174 99ft 16kts
11-Jan-18 16:52 33.937273 -118.405733 263 694ft 174kts
11-Jan-18 16:53 33.915739 -118.451700 177 3619ft 185kts
11-Jan-18 16:54 33.886538 -118.396082 110 3976ft 270kts
11-Jan-18 16:55 33.861998 -118.318605 124 6524ft 289kts
11-Jan-18 16:56 33.800207 -118.325755 250 9125ft 275kts
11-Jan-18 16:57 33.780476 -118.414632 237 11002ft 288kts
11-Jan-18 16:58 33.706230 -118.421820 138 11123ft 314kts
11-Jan-18 16:59 33.650380 -118.333510 125 11133ft 395kts
11-Jan-18 17:00 33.585145 -118.225398 125 11096ft 405kts
11-Jan-18 17:01 33.519138 -118.116373 125 11095ft 405kts
11-Jan-18 17:02 33.453348 -118.008051 125 11000ft 405kts
11-Jan-18 17:03 33.387269 -117.899603 125 11003ft 405kts
11-Jan-18 17:04 33.323325 -117.794967 125 11001ft 404kts
11-Jan-18 17:05 33.257124 -117.686981 125 11001ft 404kts
11-Jan-18 17:06 33.190847 -117.579174 125 11002ft 404kts
11-Jan-18 17:07 33.129019 -117.478916 125 10221ft 359kts
11-Jan-18 17:08 33.073414 -117.388904 125 8576ft 333kts
11-Jan-18 17:09 33.035129 -117.297930 114 6934ft 320kts
11-Jan-18 17:10 32.990797 -117.221445 146 5973ft 281kts
11-Jan-18 17:11 32.926341 -117.197951 190 6089ft 241kts
11-Jan-18 17:12 32.871235 -117.207853 190 6975ft 210kts
11-Jan-18 17:13 32.823843 -117.193131 107 7001ft 210kts
11-Jan-18 17:14 32.811339 -117.133912 100 6977ft 208kts
11-Jan-18 17:15 32.798654 -117.069985 100 6968ft 209kts
11-Jan-18 17:16 32.787004 -117.009365 100 6694ft 216kts
11-Jan-18 17:17 32.774175 -116.940173 100 4971ft 215kts
11-Jan-18 17:18 32.762881 -116.875318 100 4961ft 203kts
11-Jan-18 17:19 32.727170 -116.838935 189 4981ft 197kts
11-Jan-18 17:20 32.688589 -116.873344 250 4481ft 188kts
11-Jan-18 17:21 32.672619 -116.930062 265 3972ft 182kts
11-Jan-18 17:22 32.683775 -116.985127 286 3159ft 162kts
11-Jan-18 17:23 32.694626 -117.030117 286 2585ft 140kts
11-Jan-18 17:24 32.704957 -117.072558 286 1950ft 137kts
11-Jan-18 17:25 32.714293 -117.113358 286 1429ft 130kts
11-Jan-18 17:26 32.724158 -117.151048 285 740ft 133kts
11-Jan-18 17:27 32.733570 -117.189931 286 21ft 80kts
11-Jan-18 17:28 32.734032 -117.195647 265 19ft 5kts
11-Jan-18 17:29 32.734068 -117.196833 238 17ft 0kts
11-Jan-18 17:30 32.733157 -117.197220 186 18ft 3kts
11-Jan-18 17:31 32.732807 -117.197071 136 18ft 3kts
11-Jan-18 17:32 32.732775 -117.197033 134 19ft 0kts
11-Jan-18 17:33 32.732775 -117.197033 134 19ft 0kts
11-Jan-18 17:34 32.732775 -117.197033 134 19ft 0kts
11-Jan-18 17:35 32.732775 -117.197033 134 19ft 0kts

Navigation Log

Ident Type
Flight plan parsing failed, navigation log unavailable